Aviation weather information 2021-01-25 16:29 UTC

TAF(FCEO32)
FCEO32 EETN 251300
TAF EEKA 251300Z 2514/2520 17012KT 9999 BKN008 OVC012 TEMPO
     2514/2518 3000 SHRA BKN005 SCT013CB=
FCEO32 EETN 251500
TAF EEKE 251500Z 2516/2522 21014KT 9999 SCT015 BKN025 TEMPO
     2516/2522 3000 SHRASN BKN006 SCT015CB=

TAF(FTEO31)
FTEO31 EETN 251100 AAA
TAF AMD EETN 251409Z 2514/2612 17012KT 9999 BKN008 OVC020 TEMPO
     2514/2522 3000 SHSNRA BKN005 SCT015CB BECMG 2522/2524 VRB02KT
     3000 BR BKN004 OVC010 TEMPO 2600/2604 1500 BR OVC003 TEMPO
     2604/2609 0500 FZFG VV001 BECMG 2610/2612 03010KT 4000 SN BKN006
     OVC012=

TAF(FTEO33)
FTEO33 EEEI 251130
TAF EEEI 251130Z 2512/2612 17010KT 9999 BKN006 OVC008 TEMPO
     2512/2518 18012G22KT BECMG 2521/2523 BKN010 PROB40 TEMPO
     2522/2606 VRB02KT 4000 BR BKN003 BECMG 2606/2608 06010KT BKN020=
     

AIREP(UAEO60)
UAEO60 EETN 251432
ARS
BRU858 MOD TURB OBS AT 1427Z N5901E02528 FL330=

Weather observation (METAR/SPECI)
METAR EETN 251620Z 16010KT 9999 -SHSN BKN011 SCT016CB 01/M00 Q0997
R08/290195 NOSIG=
METAR EEEI 251550Z 14011KT 9999 -SNRA OVC007 01/M00 Q0997 R24/190095
NOSIG=
METAR EETU 251620Z AUTO 18007KT 9999 OVC020/// 01/M02 Q1001=
METAR EEPU 251620Z NIL=
METAR EEKE 251620Z 20011KT 9999 FEW016 BKN022 01/01 Q0997
R17/290095=
METAR EEKA 251620Z 15008KT 9999 DZ OVC007 01/00 Q0995=